Schedule Details


Flight Number: CTN531
Departure: Pulkovo (ULLI) at 18:50
Arrival: Franjo Tudman (LDZA) at 20:45
Route: TURAL?B141?RANVA?P863?RESMO?M155?VALGA?M985?BOKSU?M857?SUW?M985?EVINA?N744?TUSIN?M984?MIKOV?DCT?WGM?DCT?PETOV

Weather Information
ULLI 151600Z 19003G08MPS 7000 -SHRA FEW010 BKN019CB OVC038 10/09 Q0989 RESHRA R88/290050 NOSIG
LDZA 151600Z VRB02KT CAVOK 25/14 Q1022 NOSIG
Schedule Frequency

Route Map